sensor_id;sensor_type;location;lat;lon;timestamp;P1;durP1;ratioP1;P2;durP2;ratioP2
76098;SDS011;64828;49.956;8.636;2023-10-19T00:00:03;11.02;;;7.30;;
76098;SDS011;64828;49.956;8.636;2023-10-19T00:00:35;11.10;;;7.40;;
76098;SDS011;64828;49.956;8.636;2023-10-19T00:00:55;10.57;;;7.40;;
76098;SDS011;64828;49.956;8.636;2023-10-19T00:01:11;10.43;;;7.18;;
76098;SDS011;64828;49.956;8.636;2023-10-19T00:01:26;10.37;;;7.23;;
76098;SDS011;64828;49.956;8.636;2023-10-19T00:01:43;10.32;;;7.57;;
76098;SDS011;64828;49.956;8.636;2023-10-19T00:01:58;11.03;;;7.40;;
76098;SDS011;64828;49.956;8.636;2023-10-19T00:02:14;11.75;;;7.47;;
76098;SDS011;64828;49.956;8.636;2023-10-19T00:02:34;10.25;;;7.45;;
76098;SDS011;64828;49.956;8.636;2023-10-19T00:02:49;11.63;;;7.67;;
76098;SDS011;64828;49.956;8.636;2023-10-19T00:03:10;12.13;;;7.53;;
76098;SDS011;64828;49.956;8.636;2023-10-19T00:03:27;10.00;;;7.28;;
76098;SDS011;64828;49.956;8.636;2023-10-19T00:03:42;10.40;;;7.30;;
76098;SDS011;64828;49.956;8.636;2023-10-19T00:04:01;11.95;;;7.28;;
76098;SDS011;64828;49.956;8.636;2023-10-19T00:04:16;12.00;;;7.43;;
76098;SDS011;64828;49.956;8.636;2023-10-19T00:04:32;12.10;;;7.40;;
76098;SDS011;64828;49.956;8.636;2023-10-19T00:04:50;11.75;;;7.43;;
76098;SDS011;64828;49.956;8.636;2023-10-19T00:05:05;10.40;;;7.43;;
76098;SDS011;64828;49.956;8.636;2023-10-19T00:05:30;12.15;;;7.63;;
76098;SDS011;64828;49.956;8.636;2023-10-19T00:05:47;12.52;;;7.70;;
76098;SDS011;64828;49.956;8.636;2023-10-19T00:06:03;12.37;;;7.70;;
76098;SDS011;64828;49.956;8.636;2023-10-19T00:06:20;11.70;;;7.82;;
76098;SDS011;64828;49.956;8.636;2023-10-19T00:06:36;12.98;;;7.80;;
76098;SDS011;64828;49.956;8.636;2023-10-19T00:06:55;11.90;;;7.78;;
76098;SDS011;64828;49.956;8.636;2023-10-19T00:07:10;10.32;;;7.70;;
76098;SDS011;64828;49.956;8.636;2023-10-19T00:07:30;10.50;;;7.50;;
76098;SDS011;64828;49.956;8.636;2023-10-19T00:07:48;9.88;;;7.32;;
76098;SDS011;64828;49.956;8.636;2023-10-19T00:08:05;10.07;;;7.22;;
76098;SDS011;64828;49.956;8.636;2023-10-19T00:08:30;11.60;;;7.82;;
76098;SDS011;64828;49.956;8.636;2023-10-19T00:08:56;11.75;;;8.15;;
76098;SDS011;64828;49.956;8.636;2023-10-19T00:09:14;10.85;;;7.78;;
76098;SDS011;64828;49.956;8.636;2023-10-19T00:09:31;10.98;;;7.28;;
76098;SDS011;64828;49.956;8.636;2023-10-19T00:09:52;11.40;;;7.25;;
76098;SDS011;64828;49.956;8.636;2023-10-19T00:10:08;11.77;;;8.00;;
76098;SDS011;64828;49.956;8.636;2023-10-19T00:10:24;11.13;;;8.27;;
76098;SDS011;64828;49.956;8.636;2023-10-19T00:10:45;10.97;;;7.77;;
76098;SDS011;64828;49.956;8.636;2023-10-19T00:11:25;11.70;;;7.47;;
76098;SDS011;64828;49.956;8.636;2023-10-19T00:11:41;11.95;;;7.78;;
76098;SDS011;64828;49.956;8.636;2023-10-19T00:11:57;11.43;;;7.75;;
76098;SDS011;64828;49.956;8.636;2023-10-19T00:12:13;10.47;;;7.60;;
76098;SDS011;64828;49.956;8.636;2023-10-19T00:12:30;11.05;;;7.70;;
76098;SDS011;64828;49.956;8.636;2023-10-19T00:12:47;11.77;;;7.55;;
76098;SDS011;64828;49.956;8.636;2023-10-19T00:13:12;11.45;;;7.30;;
76098;SDS011;64828;49.956;8.636;2023-10-19T00:13:29;11.05;;;7.50;;
76098;SDS011;64828;49.956;8.636;2023-10-19T00:13:45;10.95;;;7.25;;
76098;SDS011;64828;49.956;8.636;2023-10-19T00:14:00;10.13;;;7.05;;
76098;SDS011;64828;49.956;8.636;2023-10-19T00:14:18;10.60;;;7.10;;
76098;SDS011;64828;49.956;8.636;2023-10-19T00:14:33;11.85;;;7.43;;
76098;SDS011;64828;49.956;8.636;2023-10-19T00:14:50;11.23;;;7.43;;
76098;SDS011;64828;49.956;8.636;2023-10-19T00:15:07;11.95;;;7.68;;
76098;SDS011;64828;49.956;8.636;2023-10-19T00:15:25;10.98;;;7.57;;
76098;SDS011;64828;49.956;8.636;2023-10-19T00:15:46;11.35;;;7.78;;
76098;SDS011;64828;49.956;8.636;2023-10-19T00:16:03;11.32;;;7.70;;
76098;SDS011;64828;49.956;8.636;2023-10-19T00:16:32;11.60;;;7.85;;
76098;SDS011;64828;49.956;8.636;2023-10-19T00:16:50;11.30;;;7.80;;
76098;SDS011;64828;49.956;8.636;2023-10-19T00:17:09;10.27;;;7.40;;
76098;SDS011;64828;49.956;8.636;2023-10-19T00:17:26;10.73;;;7.32;;
76098;SDS011;64828;49.956;8.636;2023-10-19T00:17:42;10.90;;;7.35;;
76098;SDS011;64828;49.956;8.636;2023-10-19T00:17:59;10.75;;;7.47;;
76098;SDS011;64828;49.956;8.636;2023-10-19T00:18:35;11.48;;;7.40;;
76098;SDS011;64828;49.956;8.636;2023-10-19T00:18:50;11.43;;;7.50;;
76098;SDS011;64828;49.956;8.636;2023-10-19T00:19:07;10.98;;;7.57;;
76098;SDS011;64828;49.956;8.636;2023-10-19T00:19:23;10.65;;;7.30;;
76098;SDS011;64828;49.956;8.636;2023-10-19T00:19:42;10.20;;;7.30;;
76098;SDS011;64828;49.956;8.636;2023-10-19T00:20:12;9.95;;;7.10;;
76098;SDS011;64828;49.956;8.636;2023-10-19T00:20:47;11.15;;;7.57;;
76098;SDS011;64828;49.956;8.636;2023-10-19T00:21:09;11.35;;;7.80;;
76098;SDS011;64828;49.956;8.636;2023-10-19T00:21:40;10.63;;;7.65;;
76098;SDS011;64828;49.956;8.636;2023-10-19T00:22:05;11.30;;;7.30;;
76098;SDS011;64828;49.956;8.636;2023-10-19T00:22:26;11.98;;;7.65;;
76098;SDS011;64828;49.956;8.636;2023-10-19T00:22:45;13.02;;;7.90;;
76098;SDS011;64828;49.956;8.636;2023-10-19T00:23:01;12.32;;;7.72;;
76098;SDS011;64828;49.956;8.636;2023-10-19T00:23:20;11.60;;;7.80;;
76098;SDS011;64828;49.956;8.636;2023-10-19T00:23:44;13.30;;;7.88;;
76098;SDS011;64828;49.956;8.636;2023-10-19T00:24:02;13.52;;;8.05;;
76098;SDS011;64828;49.956;8.636;2023-10-19T00:24:21;11.77;;;7.75;;
76098;SDS011;64828;49.956;8.636;2023-10-19T00:24:39;11.25;;;7.43;;
76098;SDS011;64828;49.956;8.636;2023-10-19T00:24:56;10.95;;;7.40;;
76098;SDS011;64828;49.956;8.636;2023-10-19T00:25:14;10.82;;;7.68;;
76098;SDS011;64828;49.956;8.636;2023-10-19T00:25:29;12.13;;;7.90;;
76098;SDS011;64828;49.956;8.636;2023-10-19T00:25:46;11.65;;;8.00;;
76098;SDS011;64828;49.956;8.636;2023-10-19T00:26:05;11.38;;;7.88;;
76098;SDS011;64828;49.956;8.636;2023-10-19T00:26:34;12.02;;;7.45;;
76098;SDS011;64828;49.956;8.636;2023-10-19T00:26:49;13.65;;;7.57;;
76098;SDS011;64828;49.956;8.636;2023-10-19T00:27:08;12.27;;;7.75;;
76098;SDS011;64828;49.956;8.636;2023-10-19T00:27:34;11.07;;;7.60;;
76098;SDS011;64828;49.956;8.636;2023-10-19T00:27:50;11.48;;;7.55;;
76098;SDS011;64828;49.956;8.636;2023-10-19T00:28:06;11.18;;;7.40;;
76098;SDS011;64828;49.956;8.636;2023-10-19T00:28:22;10.93;;;7.47;;
76098;SDS011;64828;49.956;8.636;2023-10-19T00:28:38;11.18;;;7.85;;
76098;SDS011;64828;49.956;8.636;2023-10-19T00:28:54;11.50;;;7.90;;
76098;SDS011;64828;49.956;8.636;2023-10-19T00:29:12;12.07;;;8.02;;
76098;SDS011;64828;49.956;8.636;2023-10-19T00:29:47;11.93;;;7.65;;
76098;SDS011;64828;49.956;8.636;2023-10-19T00:30:04;13.10;;;8.07;;
76098;SDS011;64828;49.956;8.636;2023-10-19T00:30:21;12.00;;;7.60;;
76098;SDS011;64828;49.956;8.636;2023-10-19T00:30:39;10.63;;;7.32;;
76098;SDS011;64828;49.956;8.636;2023-10-19T00:30:57;10.50;;;7.50;;
76098;SDS011;64828;49.956;8.636;2023-10-19T00:31:18;10.60;;;7.00;;
76098;SDS011;64828;49.956;8.636;2023-10-19T00:31:37;11.13;;;8.00;;
76098;SDS011;64828;49.956;8.636;2023-10-19T00:31:58;11.90;;;7.90;;
76098;SDS011;64828;49.956;8.636;2023-10-19T00:32:15;12.07;;;7.68;;
76098;SDS011;64828;49.956;8.636;2023-10-19T00:32:32;11.40;;;7.60;;
76098;SDS011;64828;49.956;8.636;2023-10-19T00:32:53;10.73;;;7.70;;
76098;SDS011;64828;49.956;8.636;2023-10-19T00:33:09;10.55;;;7.65;;
76098;SDS011;64828;49.956;8.636;2023-10-19T00:33:35;11.75;;;8.13;;
76098;SDS011;64828;49.956;8.636;2023-10-19T00:33:53;12.13;;;7.85;;
76098;SDS011;64828;49.956;8.636;2023-10-19T00:34:10;11.75;;;7.80;;
76098;SDS011;64828;49.956;8.636;2023-10-19T00:34:28;11.10;;;7.70;;
76098;SDS011;64828;49.956;8.636;2023-10-19T00:34:43;11.10;;;7.78;;
76098;SDS011;64828;49.956;8.636;2023-10-19T00:35:06;10.88;;;7.97;;
76098;SDS011;64828;49.956;8.636;2023-10-19T00:35:42;10.80;;;7.57;;
76098;SDS011;64828;49.956;8.636;2023-10-19T00:36:01;11.02;;;7.80;;
76098;SDS011;64828;49.956;8.636;2023-10-19T00:36:23;11.70;;;7.60;;
76098;SDS011;64828;49.956;8.636;2023-10-19T00:36:40;10.85;;;7.32;;
76098;SDS011;64828;49.956;8.636;2023-10-19T00:36:56;10.88;;;7.57;;
76098;SDS011;64828;49.956;8.636;2023-10-19T00:37:11;11.77;;;7.57;;
76098;SDS011;64828;49.956;8.636;2023-10-19T00:37:33;11.32;;;7.85;;
76098;SDS011;64828;49.956;8.636;2023-10-19T00:37:57;11.38;;;7.53;;
76098;SDS011;64828;49.956;8.636;2023-10-19T00:38:32;11.98;;;7.80;;
76098;SDS011;64828;49.956;8.636;2023-10-19T00:38:52;12.45;;;7.60;;
76098;SDS011;64828;49.956;8.636;2023-10-19T00:39:08;11.55;;;7.30;;
76098;SDS011;64828;49.956;8.636;2023-10-19T00:39:36;12.13;;;7.95;;
76098;SDS011;64828;49.956;8.636;2023-10-19T00:39:58;12.40;;;8.00;;
76098;SDS011;64828;49.956;8.636;2023-10-19T00:40:29;13.07;;;8.30;;
76098;SDS011;64828;49.956;8.636;2023-10-19T00:40:50;11.25;;;7.75;;
76098;SDS011;64828;49.956;8.636;2023-10-19T00:41:08;11.50;;;7.97;;
76098;SDS011;64828;49.956;8.636;2023-10-19T00:41:25;12.48;;;7.90;;
76098;SDS011;64828;49.956;8.636;2023-10-19T00:41:45;13.40;;;8.07;;
76098;SDS011;64828;49.956;8.636;2023-10-19T00:42:01;11.98;;;8.25;;
76098;SDS011;64828;49.956;8.636;2023-10-19T00:42:17;11.27;;;7.88;;
76098;SDS011;64828;49.956;8.636;2023-10-19T00:42:38;11.13;;;7.65;;
76098;SDS011;64828;49.956;8.636;2023-10-19T00:43:03;10.65;;;7.57;;
76098;SDS011;64828;49.956;8.636;2023-10-19T00:43:28;10.98;;;7.57;;
76098;SDS011;64828;49.956;8.636;2023-10-19T00:43:48;11.00;;;7.93;;
76098;SDS011;64828;49.956;8.636;2023-10-19T00:44:04;11.93;;;8.10;;
76098;SDS011;64828;49.956;8.636;2023-10-19T00:44:25;11.73;;;7.97;;
76098;SDS011;64828;49.956;8.636;2023-10-19T00:44:52;12.00;;;7.68;;
76098;SDS011;64828;49.956;8.636;2023-10-19T00:45:16;12.20;;;8.18;;
76098;SDS011;64828;49.956;8.636;2023-10-19T00:45:39;11.02;;;7.53;;
76098;SDS011;64828;49.956;8.636;2023-10-19T00:45:56;11.55;;;7.93;;
76098;SDS011;64828;49.956;8.636;2023-10-19T00:46:13;12.02;;;7.80;;
76098;SDS011;64828;49.956;8.636;2023-10-19T00:46:33;11.40;;;8.02;;
76098;SDS011;64828;49.956;8.636;2023-10-19T00:46:58;11.90;;;7.95;;
76098;SDS011;64828;49.956;8.636;2023-10-19T00:47:27;12.85;;;7.75;;
76098;SDS011;64828;49.956;8.636;2023-10-19T00:47:53;11.90;;;7.95;;
76098;SDS011;64828;49.956;8.636;2023-10-19T00:48:10;13.20;;;7.88;;
76098;SDS011;64828;49.956;8.636;2023-10-19T00:48:26;13.40;;;7.60;;
76098;SDS011;64828;49.956;8.636;2023-10-19T00:48:55;11.63;;;7.47;;
76098;SDS011;64828;49.956;8.636;2023-10-19T00:49:14;10.48;;;7.70;;
76098;SDS011;64828;49.956;8.636;2023-10-19T00:49:30;10.90;;;7.90;;
76098;SDS011;64828;49.956;8.636;2023-10-19T00:49:46;11.38;;;7.85;;
76098;SDS011;64828;49.956;8.636;2023-10-19T00:50:02;11.05;;;8.15;;
76098;SDS011;64828;49.956;8.636;2023-10-19T00:50:20;11.68;;;8.50;;
76098;SDS011;64828;49.956;8.636;2023-10-19T00:50:42;11.45;;;7.88;;
76098;SDS011;64828;49.956;8.636;2023-10-19T00:50:58;11.45;;;7.70;;
76098;SDS011;64828;49.956;8.636;2023-10-19T00:51:44;12.27;;;7.90;;
76098;SDS011;64828;49.956;8.636;2023-10-19T00:52:08;12.75;;;8.38;;
76098;SDS011;64828;49.956;8.636;2023-10-19T00:52:31;12.55;;;8.00;;
76098;SDS011;64828;49.956;8.636;2023-10-19T00:52:47;11.70;;;7.80;;
76098;SDS011;64828;49.956;8.636;2023-10-19T00:53:04;12.10;;;8.00;;
76098;SDS011;64828;49.956;8.636;2023-10-19T00:53:23;12.82;;;7.90;;
76098;SDS011;64828;49.956;8.636;2023-10-19T00:53:42;11.68;;;7.80;;
76098;SDS011;64828;49.956;8.636;2023-10-19T00:54:00;11.30;;;7.70;;
76098;SDS011;64828;49.956;8.636;2023-10-19T00:54:29;11.63;;;7.90;;
76098;SDS011;64828;49.956;8.636;2023-10-19T00:54:51;12.02;;;7.80;;
76098;SDS011;64828;49.956;8.636;2023-10-19T00:55:08;11.82;;;7.85;;
76098;SDS011;64828;49.956;8.636;2023-10-19T00:55:27;10.43;;;8.05;;
76098;SDS011;64828;49.956;8.636;2023-10-19T00:55:43;10.70;;;7.65;;
76098;SDS011;64828;49.956;8.636;2023-10-19T00:56:01;11.05;;;7.57;;
76098;SDS011;64828;49.956;8.636;2023-10-19T00:56:20;12.10;;;7.97;;
76098;SDS011;64828;49.956;8.636;2023-10-19T00:56:39;11.90;;;7.78;;
76098;SDS011;64828;49.956;8.636;2023-10-19T00:57:10;11.18;;;7.75;;
76098;SDS011;64828;49.956;8.636;2023-10-19T00:57:27;12.25;;;8.13;;
76098;SDS011;64828;49.956;8.636;2023-10-19T00:57:49;11.70;;;7.97;;
76098;SDS011;64828;49.956;8.636;2023-10-19T00:58:06;10.50;;;7.68;;
76098;SDS011;64828;49.956;8.636;2023-10-19T00:58:24;10.15;;;7.68;;
76098;SDS011;64828;49.956;8.636;2023-10-19T00:58:44;11.55;;;7.53;;
76098;SDS011;64828;49.956;8.636;2023-10-19T00:59:08;13.65;;;7.82;;
76098;SDS011;64828;49.956;8.636;2023-10-19T00:59:29;13.73;;;7.90;;
76098;SDS011;64828;49.956;8.636;2023-10-19T00:59:45;11.90;;;7.80;;
76098;SDS011;64828;49.956;8.636;2023-10-19T01:00:08;11.77;;;7.90;;
76098;SDS011;64828;49.956;8.636;2023-10-19T01:00:27;12.48;;;8.07;;
76098;SDS011;64828;49.956;8.636;2023-10-19T01:00:46;12.77;;;7.88;;
76098;SDS011;64828;49.956;8.636;2023-10-19T01:01:05;13.15;;;8.00;;
76098;SDS011;64828;49.956;8.636;2023-10-19T01:01:21;11.57;;;7.90;;
76098;SDS011;64828;49.956;8.636;2023-10-19T01:01:43;10.93;;;7.63;;
76098;SDS011;64828;49.956;8.636;2023-10-19T01:02:03;11.82;;;8.07;;
76098;SDS011;64828;49.956;8.636;2023-10-19T01:02:39;11.23;;;7.88;;
76098;SDS011;64828;49.956;8.636;2023-10-19T01:03:01;13.00;;;7.90;;
76098;SDS011;64828;49.956;8.636;2023-10-19T01:03:19;12.55;;;8.02;;
76098;SDS011;64828;49.956;8.636;2023-10-19T01:03:35;12.30;;;8.20;;
76098;SDS011;64828;49.956;8.636;2023-10-19T01:03:52;11.25;;;8.02;;
76098;SDS011;64828;49.956;8.636;2023-10-19T01:04:11;11.55;;;8.00;;
76098;SDS011;64828;49.956;8.636;2023-10-19T01:04:29;12.40;;;8.18;;
76098;SDS011;64828;49.956;8.636;2023-10-19T01:04:50;11.40;;;7.75;;
76098;SDS011;64828;49.956;8.636;2023-10-19T01:05:19;12.27;;;8.00;;
76098;SDS011;64828;49.956;8.636;2023-10-19T01:05:38;12.77;;;8.00;;
76098;SDS011;64828;49.956;8.636;2023-10-19T01:05:53;11.23;;;7.77;;
76098;SDS011;64828;49.956;8.636;2023-10-19T01:06:09;11.20;;;7.78;;
76098;SDS011;64828;49.956;8.636;2023-10-19T01:06:25;10.82;;;7.82;;
76098;SDS011;64828;49.956;8.636;2023-10-19T01:06:41;11.82;;;7.70;;
76098;SDS011;64828;49.956;8.636;2023-10-19T01:07:13;12.85;;;8.30;;
76098;SDS011;64828;49.956;8.636;2023-10-19T01:07:41;10.85;;;7.70;;
76098;SDS011;64828;49.956;8.636;2023-10-19T01:07:59;10.40;;;7.65;;
76098;SDS011;64828;49.956;8.636;2023-10-19T01:08:17;10.63;;;7.70;;
76098;SDS011;64828;49.956;8.636;2023-10-19T01:08:40;11.63;;;7.72;;
76098;SDS011;64828;49.956;8.636;2023-10-19T01:08:58;12.45;;;7.97;;
76098;SDS011;64828;49.956;8.636;2023-10-19T01:09:14;11.32;;;7.47;;
76098;SDS011;64828;49.956;8.636;2023-10-19T01:09:29;12.13;;;7.72;;
76098;SDS011;64828;49.956;8.636;2023-10-19T01:09:49;13.05;;;8.25;;
76098;SDS011;64828;49.956;8.636;2023-10-19T01:10:08;13.80;;;8.32;;
76098;SDS011;64828;49.956;8.636;2023-10-19T01:10:27;12.32;;;8.13;;
76098;SDS011;64828;49.956;8.636;2023-10-19T01:10:43;11.23;;;8.02;;
76098;SDS011;64828;49.956;8.636;2023-10-19T01:11:01;11.75;;;8.07;;
76098;SDS011;64828;49.956;8.636;2023-10-19T01:11:19;11.43;;;7.95;;
76098;SDS011;64828;49.956;8.636;2023-10-19T01:11:36;12.18;;;8.00;;
76098;SDS011;64828;49.956;8.636;2023-10-19T01:11:52;11.48;;;8.02;;
76098;SDS011;64828;49.956;8.636;2023-10-19T01:12:08;10.15;;;7.90;;
76098;SDS011;64828;49.956;8.636;2023-10-19T01:12:42;12.43;;;8.27;;
76098;SDS011;64828;49.956;8.636;2023-10-19T01:12:58;11.55;;;8.02;;
76098;SDS011;64828;49.956;8.636;2023-10-19T01:13:14;10.55;;;7.55;;
76098;SDS011;64828;49.956;8.636;2023-10-19T01:13:31;11.02;;;7.70;;
76098;SDS011;64828;49.956;8.636;2023-10-19T01:13:49;11.55;;;8.00;;
76098;SDS011;64828;49.956;8.636;2023-10-19T01:14:19;11.77;;;8.02;;
76098;SDS011;64828;49.956;8.636;2023-10-19T01:14:42;12.10;;;8.00;;
76098;SDS011;64828;49.956;8.636;2023-10-19T01:15:22;11.07;;;7.70;;
76098;SDS011;64828;49.956;8.636;2023-10-19T01:15:44;11.25;;;7.40;;
76098;SDS011;64828;49.956;8.636;2023-10-19T01:16:04;10.35;;;7.70;;
76098;SDS011;64828;49.956;8.636;2023-10-19T01:16:20;11.20;;;7.90;;
76098;SDS011;64828;49.956;8.636;2023-10-19T01:16:35;11.77;;;8.27;;
76098;SDS011;64828;49.956;8.636;2023-10-19T01:16:53;11.55;;;8.18;;
76098;SDS011;64828;49.956;8.636;2023-10-19T01:17:12;10.77;;;7.47;;
76098;SDS011;64828;49.956;8.636;2023-10-19T01:17:28;11.07;;;7.70;;
76098;SDS011;64828;49.956;8.636;2023-10-19T01:17:47;12.20;;;8.20;;
76098;SDS011;64828;49.956;8.636;2023-10-19T01:18:08;11.07;;;8.30;;
76098;SDS011;64828;49.956;8.636;2023-10-19T01:18:28;11.15;;;8.15;;
76098;SDS011;64828;49.956;8.636;2023-10-19T01:18:48;12.23;;;8.02;;
76098;SDS011;64828;49.956;8.636;2023-10-19T01:19:11;12.13;;;8.05;;
76098;SDS011;64828;49.956;8.636;2023-10-19T01:19:26;12.75;;;8.05;;
76098;SDS011;64828;49.956;8.636;2023-10-19T01:19:42;11.80;;;7.50;;
76098;SDS011;64828;49.956;8.636;2023-10-19T01:19:58;11.45;;;7.80;;
76098;SDS011;64828;49.956;8.636;2023-10-19T01:20:14;11.75;;;7.97;;
76098;SDS011;64828;49.956;8.636;2023-10-19T01:20:35;13.73;;;8.30;;
76098;SDS011;64828;49.956;8.636;2023-10-19T01:21:05;12.85;;;8.07;;
76098;SDS011;64828;49.956;8.636;2023-10-19T01:21:22;12.73;;;8.20;;
76098;SDS011;64828;49.956;8.636;2023-10-19T01:21:59;13.73;;;8.07;;
76098;SDS011;64828;49.956;8.636;2023-10-19T01:22:19;12.77;;;8.40;;
76098;SDS011;64828;49.956;8.636;2023-10-19T01:22:34;12.25;;;8.20;;
76098;SDS011;64828;49.956;8.636;2023-10-19T01:22:54;13.20;;;8.10;;
76098;SDS011;64828;49.956;8.636;2023-10-19T01:23:23;11.60;;;7.35;;
76098;SDS011;64828;49.956;8.636;2023-10-19T01:23:42;10.10;;;7.22;;
76098;SDS011;64828;49.956;8.636;2023-10-19T01:23:59;10.18;;;7.72;;
76098;SDS011;64828;49.956;8.636;2023-10-19T01:24:15;11.82;;;8.10;;
76098;SDS011;64828;49.956;8.636;2023-10-19T01:24:31;13.27;;;8.35;;
76098;SDS011;64828;49.956;8.636;2023-10-19T01:24:56;11.30;;;7.75;;
76098;SDS011;64828;49.956;8.636;2023-10-19T01:25:13;11.70;;;8.23;;
76098;SDS011;64828;49.956;8.636;2023-10-19T01:25:56;13.15;;;8.40;;
76098;SDS011;64828;49.956;8.636;2023-10-19T01:26:14;13.25;;;8.38;;
76098;SDS011;64828;49.956;8.636;2023-10-19T01:26:37;11.57;;;8.30;;
76098;SDS011;64828;49.956;8.636;2023-10-19T01:26:53;11.65;;;8.52;;
76098;SDS011;64828;49.956;8.636;2023-10-19T01:27:09;12.13;;;8.40;;
76098;SDS011;64828;49.956;8.636;2023-10-19T01:27:25;12.02;;;8.15;;
76098;SDS011;64828;49.956;8.636;2023-10-19T01:27:40;11.77;;;8.40;;
76098;SDS011;64828;49.956;8.636;2023-10-19T01:27:56;11.60;;;8.20;;
76098;SDS011;64828;49.956;8.636;2023-10-19T01:28:12;11.35;;;8.18;;
76098;SDS011;64828;49.956;8.636;2023-10-19T01:28:33;13.02;;;8.48;;
76098;SDS011;64828;49.956;8.636;2023-10-19T01:28:55;12.48;;;8.43;;
76098;SDS011;64828;49.956;8.636;2023-10-19T01:29:16;12.00;;;8.18;;
76098;SDS011;64828;49.956;8.636;2023-10-19T01:29:40;11.32;;;7.85;;
76098;SDS011;64828;49.956;8.636;2023-10-19T01:29:56;12.25;;;8.00;;
76098;SDS011;64828;49.956;8.636;2023-10-19T01:30:15;12.10;;;8.10;;
76098;SDS011;64828;49.956;8.636;2023-10-19T01:30:32;11.52;;;7.78;;
76098;SDS011;64828;49.956;8.636;2023-10-19T01:30:49;11.43;;;8.23;;
76098;SDS011;64828;49.956;8.636;2023-10-19T01:31:06;10.85;;;8.10;;
76098;SDS011;64828;49.956;8.636;2023-10-19T01:31:50;12.27;;;8.23;;
76098;SDS011;64828;49.956;8.636;2023-10-19T01:32:11;12.35;;;8.23;;
76098;SDS011;64828;49.956;8.636;2023-10-19T01:32:30;12.45;;;8.55;;
76098;SDS011;64828;49.956;8.636;2023-10-19T01:32:45;12.57;;;8.55;;
76098;SDS011;64828;49.956;8.636;2023-10-19T01:33:01;12.90;;;8.47;;
76098;SDS011;64828;49.956;8.636;2023-10-19T01:33:19;11.95;;;8.25;;
76098;SDS011;64828;49.956;8.636;2023-10-19T01:33:36;11.70;;;7.97;;
76098;SDS011;64828;49.956;8.636;2023-10-19T01:33:52;11.98;;;8.25;;
76098;SDS011;64828;49.956;8.636;2023-10-19T01:34:10;12.23;;;7.80;;
76098;SDS011;64828;49.956;8.636;2023-10-19T01:34:26;12.10;;;7.40;;
76098;SDS011;64828;49.956;8.636;2023-10-19T01:34:42;11.15;;;7.72;;
76098;SDS011;64828;49.956;8.636;2023-10-19T01:34:58;10.88;;;7.82;;
76098;SDS011;64828;49.956;8.636;2023-10-19T01:35:13;11.73;;;7.80;;
76098;SDS011;64828;49.956;8.636;2023-10-19T01:35:29;12.67;;;8.07;;
76098;SDS011;64828;49.956;8.636;2023-10-19T01:36:05;11.07;;;8.13;;
76098;SDS011;64828;49.956;8.636;2023-10-19T01:36:30;11.63;;;8.35;;
76098;SDS011;64828;49.956;8.636;2023-10-19T01:36:51;10.68;;;7.90;;
76098;SDS011;64828;49.956;8.636;2023-10-19T01:37:09;11.75;;;8.20;;
76098;SDS011;64828;49.956;8.636;2023-10-19T01:37:27;12.45;;;8.35;;
76098;SDS011;64828;49.956;8.636;2023-10-19T01:37:42;12.85;;;8.45;;
76098;SDS011;64828;49.956;8.636;2023-10-19T01:37:58;13.67;;;8.60;;
76098;SDS011;64828;49.956;8.636;2023-10-19T01:38:15;12.75;;;8.50;;
76098;SDS011;64828;49.956;8.636;2023-10-19T01:38:31;12.10;;;8.15;;
76098;SDS011;64828;49.956;8.636;2023-10-19T01:38:47;11.32;;;7.75;;
76098;SDS011;64828;49.956;8.636;2023-10-19T01:39:03;11.15;;;8.15;;
76098;SDS011;64828;49.956;8.636;2023-10-19T01:39:25;13.23;;;8.52;;
76098;SDS011;64828;49.956;8.636;2023-10-19T01:39:40;12.77;;;8.27;;
76098;SDS011;64828;49.956;8.636;2023-10-19T01:40:00;11.75;;;8.00;;
76098;SDS011;64828;49.956;8.636;2023-10-19T01:40:16;12.25;;;8.10;;
76098;SDS011;64828;49.956;8.636;2023-10-19T01:40:35;12.00;;;8.18;;
76098;SDS011;64828;49.956;8.636;2023-10-19T01:40:59;11.52;;;8.23;;
76098;SDS011;64828;49.956;8.636;2023-10-19T01:41:21;13.10;;;8.70;;
76098;SDS011;64828;49.956;8.636;2023-10-19T01:41:39;12.45;;;8.30;;
76098;SDS011;64828;49.956;8.636;2023-10-19T01:41:56;11.20;;;8.07;;
76098;SDS011;64828;49.956;8.636;2023-10-19T01:42:13;11.82;;;8.10;;
76098;SDS011;64828;49.956;8.636;2023-10-19T01:42:28;12.17;;;8.37;;
76098;SDS011;64828;49.956;8.636;2023-10-19T01:42:45;12.50;;;8.43;;
76098;SDS011;64828;49.956;8.636;2023-10-19T01:43:01;13.32;;;8.65;;
76098;SDS011;64828;49.956;8.636;2023-10-19T01:43:18;12.70;;;8.30;;
76098;SDS011;64828;49.956;8.636;2023-10-19T01:43:36;13.45;;;8.52;;
76098;SDS011;64828;49.956;8.636;2023-10-19T01:43:55;12.55;;;8.38;;
76098;SDS011;64828;49.956;8.636;2023-10-19T01:44:17;11.50;;;8.52;;
76098;SDS011;64828;49.956;8.636;2023-10-19T01:44:35;12.02;;;8.35;;
76098;SDS011;64828;49.956;8.636;2023-10-19T01:44:51;13.23;;;8.60;;
76098;SDS011;64828;49.956;8.636;2023-10-19T01:45:07;13.00;;;8.33;;
76098;SDS011;64828;49.956;8.636;2023-10-19T01:45:26;12.40;;;8.43;;
76098;SDS011;64828;49.956;8.636;2023-10-19T01:45:41;12.00;;;8.23;;
76098;SDS011;64828;49.956;8.636;2023-10-19T01:46:00;12.18;;;8.50;;
76098;SDS011;64828;49.956;8.636;2023-10-19T01:46:21;13.93;;;8.90;;
76098;SDS011;64828;49.956;8.636;2023-10-19T01:46:44;12.23;;;8.07;;
76098;SDS011;64828;49.956;8.636;2023-10-19T01:47:00;11.63;;;8.25;;
76098;SDS011;64828;49.956;8.636;2023-10-19T01:47:16;12.30;;;8.68;;
76098;SDS011;64828;49.956;8.636;2023-10-19T01:47:32;12.57;;;8.70;;
76098;SDS011;64828;49.956;8.636;2023-10-19T01:47:47;12.68;;;8.43;;
76098;SDS011;64828;49.956;8.636;2023-10-19T01:48:06;13.00;;;8.30;;
76098;SDS011;64828;49.956;8.636;2023-10-19T01:48:22;11.98;;;8.18;;
76098;SDS011;64828;49.956;8.636;2023-10-19T01:48:47;11.10;;;7.80;;
76098;SDS011;64828;49.956;8.636;2023-10-19T01:49:09;11.60;;;8.25;;
76098;SDS011;64828;49.956;8.636;2023-10-19T01:49:25;12.50;;;8.32;;
76098;SDS011;64828;49.956;8.636;2023-10-19T01:49:41;12.60;;;8.17;;
76098;SDS011;64828;49.956;8.636;2023-10-19T01:50:00;12.60;;;8.55;;
76098;SDS011;64828;49.956;8.636;2023-10-19T01:50:16;12.93;;;8.93;;
76098;SDS011;64828;49.956;8.636;2023-10-19T01:50:36;15.05;;;9.02;;
76098;SDS011;64828;49.956;8.636;2023-10-19T01:50:54;14.35;;;8.73;;
76098;SDS011;64828;49.956;8.636;2023-10-19T01:51:10;12.63;;;8.60;;
76098;SDS011;64828;49.956;8.636;2023-10-19T01:51:27;12.43;;;8.63;;
76098;SDS011;64828;49.956;8.636;2023-10-19T01:51:45;13.07;;;8.73;;
76098;SDS011;64828;49.956;8.636;2023-10-19T01:52:02;12.93;;;8.65;;
76098;SDS011;64828;49.956;8.636;2023-10-19T01:52:19;12.82;;;8.50;;
76098;SDS011;64828;49.956;8.636;2023-10-19T01:52:34;12.38;;;7.88;;
76098;SDS011;64828;49.956;8.636;2023-10-19T01:52:50;11.87;;;8.10;;
76098;SDS011;64828;49.956;8.636;2023-10-19T01:53:06;11.48;;;8.43;;
76098;SDS011;64828;49.956;8.636;2023-10-19T01:53:33;12.55;;;8.52;;
76098;SDS011;64828;49.956;8.636;2023-10-19T01:54:07;13.95;;;8.48;;
76098;SDS011;64828;49.956;8.636;2023-10-19T01:54:23;12.52;;;8.45;;
76098;SDS011;64828;49.956;8.636;2023-10-19T01:54:40;11.88;;;8.52;;
76098;SDS011;64828;49.956;8.636;2023-10-19T01:54:55;12.30;;;8.60;;
76098;SDS011;64828;49.956;8.636;2023-10-19T01:55:17;13.10;;;8.65;;
76098;SDS011;64828;49.956;8.636;2023-10-19T01:55:38;12.85;;;8.57;;
76098;SDS011;64828;49.956;8.636;2023-10-19T01:55:54;13.55;;;9.00;;
76098;SDS011;64828;49.956;8.636;2023-10-19T01:56:13;12.40;;;8.52;;
76098;SDS011;64828;49.956;8.636;2023-10-19T01:56:31;12.52;;;8.48;;
76098;SDS011;64828;49.956;8.636;2023-10-19T01:56:54;12.93;;;8.65;;